METAR Data
IDs: Format: Raw Decoded Include TAF

Data at: 0228 UTC 01 Feb 2023

KCWF 010145Z 010115KT 5SM -RA BR OVC006 07/06 A3025
KCWF 010045Z 36011KT 5SM -RA BR OVC006 08/07 A3021
KCWF 312345Z 36008KT 3SM -RA BR OVC004 08/07 A3020
KCWF 312245Z 36007KT 3SM RA BR OVC004 08/07 A3018 RMK RAB35
KCWF 312145Z 01010KT 3SM BR OVC004 09/08 A3015
KCWF 312045Z 03008KT 5SM BR OVC006 09/08 A3015
KCWF 311950Z 02011KT 5SM BR OVC004 09/08 A3015
KCWF 311853Z 35010KT 3SM BR OVC004 10/08 A3017
KCWF 311745Z 01006KT 3SM BR OVC006 10/08 A3020
KCWF 311645Z 02007KT 3SM BR OVC004 10/09 A3022
KCWF 311545Z 02007KT 3SM BR OVC004 10/09 A3021
KCWF 311445Z 04010KT 3SM BR OVC004 11/09 A3018
KCWF 311345Z 04007KT 2SM BR OVC004 10/09 A3016
KCWF 311245Z 02006KT 2SM BR OVC002 10/09 A3015
KCWF 311200Z 01007KT 2SM BR OVC002 11/10 A3014
KCWF 311135Z AUTO 35009KT 1 1/2SM BR OVC002 11/10 A3013 RMK AO2 T01070101
KCWF 311115Z AUTO 36008KT 1 1/2SM BR OVC002 11/10 A3013 RMK AO2 T01080102
KCWF 311055Z AUTO 01008KT 1 1/2SM BR OVC002 11/10 A3012 RMK AO2 T01080102
KCWF 311035Z AUTO 36007KT 1 3/4SM BR OVC002 11/10 A3012 RMK AO2 T01090103
KCWF 311015Z AUTO 36007KT 2SM BR OVC002 11/10 A3013 RMK AO2 T01110105
KCWF 310955Z AUTO 02007KT 2SM BR OVC002 11/11 A3012 RMK AO2 T01110105
KCWF 310935Z AUTO 36007KT 1 3/4SM BR OVC002 11/11 A3013 RMK AO2 T01130107
KCWF 310915Z AUTO 36006KT 1 1/4SM BR OVC002 11/11 A3012 RMK AO2 T01130107
KCWF 310855Z AUTO 36007KT 1 3/4SM BR OVC002 11/11 A3013 RMK AO2 T01140108
KCWF 310835Z AUTO 36008KT 1 1/2SM BR OVC002 11/11 A3013 RMK AO2 T01140108
KCWF 310815Z AUTO 35008KT 1 1/4SM BR OVC002 11/11 A3013 RMK AO2 T01130107
KCWF 310755Z AUTO 36006KT 1 1/2SM BR OVC002 11/11 A3013 RMK AO2 T01110105
KCWF 310735Z AUTO 36008KT 1 1/2SM BR OVC002 11/11 A3014 RMK AO2 T01120106
KCWF 310715Z AUTO 36007KT 1 1/2SM BR OVC002 11/11 A3014 RMK AO2 T01140108
KCWF 310655Z AUTO 35010KT 1 1/4SM BR OVC002 11/11 A3015 RMK AO2 T01150109
KCWF 310635Z AUTO 34007KT 1 1/4SM BR OVC002 12/11 A3015 RMK AO2 T01180112
KCWF 310615Z AUTO 35008KT 1 1/2SM BR OVC002 12/11 A3014 RMK AO2 T01190113
KCWF 310555Z AUTO 35006KT 1SM BR OVC002 12/12 A3015 RMK AO2 T01220116 10154 20120
KCWF 310535Z AUTO 35007KT 3/4SM BR OVC002 12/11 A3015 RMK AO2 T01210115
KCWF 310515Z AUTO 34007KT 3/4SM BR OVC002 12/12 A3016 RMK AO2 T01220116
KCWF 310455Z AUTO 35008KT 1SM BR OVC002 13/12 A3016 RMK AO2 T01260120
KCWF 310435Z AUTO 34006KT 1SM BR OVC002 13/12 A3016 RMK AO2 T01300123
KCWF 310415Z AUTO 32008KT 1SM BR OVC002 14/13 A3016 RMK AO2 T01360130
KCWF 302345Z 36005KT 2SM BR OVC004 16/14 A3013
KCWF 302255Z 01005KT 2SM BR OVC004 16/15 A3012
KCWF 302145Z 36008KT 2SM BR OVC004 16/14 A3011
KCWF 302045Z 01007KT 2SM BR OVC004 16/15 A3010
KCWF 301955Z 03006KT 4SM BR OVC004 17/16 A3011
KCWF 301845Z 03005KT 3SM BR OVC004 17/16 A3012
KCWF 301755Z 03007KT 5SM BR OVC004 17/16 A3015
KCWF 301645Z 07006KT 5SM BR OVC004 17/16 A3017
KCWF 301555Z 06005KT 5SM BR OVC004 17/16 A3017
KCWF 301445Z 06006KT 2 1/2SM BR BKN004 BKN009 OVC044 17/16 A3015